Malabar, FL (32950)

3:55 PM EDT on April 28, 2015 (GMT -0400)
Port Malabar | | Change Station
CLOSE
Current Station
Personal Weather Station
Location: Palm Bay, FL
Elevation: 30 ft
Nearby Weather Stations

Elev 30 ft 28.02 °N, 80.58 °W | Updated 1 minute ago

Overcast
Overcast
77.0 °F
Feels Like 78 °F
N
4.7
Wind Variable Wind from SE

Today
High -- | Low -- °F
--% Chance of Precip.
Yesterday
High -- | Low -- °F
Precip. -- in
6:45 AM 7:54 PM
Waxing Gibbous, 76% visible
Pressure 29.74 in
Visibility 10.0 miles
Clouds Few 2000 ft
Scattered Clouds 12000 ft
Heat Index 78 °F
Dew Point 73 °F
Humidity 88%
Rainfall 0.27 in
Snow Depth Not available.
UV 10 out of 12
Pollen .10 out of 12
Air Quality Not available.
Flu Activity Local Activity
METAR KMLB 281853Z 11009KT 10SM FEW020 SCT120 24/19 A2974 RMK AO2 RAE18 PRESFR SLP071 P0000 T02440194

More Conditions Fewer Conditions

Pressure 29.74 in
Visibility 10.0 miles
Clouds Few 2000 ft
Scattered Clouds 12000 ft
Heat Index 78 °F
Dew Point 73 °F
Humidity 88%
Rainfall 0.27 in
Snow Depth Not available.
UV 10 out of 12
Pollen .10 out of 12
Air Quality Not available.
Flu Activity Local Activity
METAR KMLB 281853Z 11009KT 10SM FEW020 SCT120 24/19 A2974 RMK AO2 RAE18 PRESFR SLP071 P0000 T02440194

More Conditions Fewer Conditions

Nowcast | as of 2:51 PM EDT on April 28, 2015

Through dusk a few showers will affect portions of east central Florida measurable amounts of rain of a few hundredths of an inch are possible in affected areas. Additionally a few slow moving showers and storms are possible along the Volusia County coastal areas. Additional details...including graphics are available online at: http://www.Srh.NOAA.Gov/mlb/blog.Php

×

10-Day Weather Forecast

Almanac

Astronomy

Apr. 28, 2015 Rise Set
Actual Time
Civil Twilight
Nautical Twilight
Astronomical Twilight
Moon
Length of Visible Light
Length of Day
Tomorrow will be .
, % of the Moon is Illuminated

Today's Extremes

State Highs State Lows

Community

WunderPhotos

Upload Photos

1,817,741 photos uploaded!

WunderBlogs® & News

Nearby

Air Quality

  Air Quality AQ Index Pollutant
Not available.

Snow Depth

Station Depth Elevation

Earthquake Activity

City Distance Mag. Time & Date
Minimum magnitude displayed is 2.5.

Coastal Water Temperatures

Place Temperature

Stations

Nearby Weather Stations

Station Location Temp. Windchill Dew Point Humidity Wind Precip. Elev Updated Type